SBOSBO OPO / LPPR
Speedbird OnlineSpeedbird Online OPO / LPPR

Francisco de Sá Carneiro Airport
14:32 13°C

Location Porto, Portugal
Latitude: 41.2481002808
Longitude: -8.68138980865
Web Airport Website | Wikipedia
Altitude 69 Meter / 228 Feet
Distance 1,324 KM / 823 Miles
from London.
Time Zone UTC 0 hours (Europe/Lisbon)
Codes IATA: OPO
ICAO: LPPR
Currency £1 equals EUR 1.14
Runways
RunwayLength (m)Surface
173480Asphalt
353480Asphalt
Radio
TypeDescriptionFrequency
APPPorto Approach121.105
ATISATIS124.305
CLR DLVRPorto Delivery118.93
TWRPorto Tower118.005
Live ATC
METAR LPPR 311330Z 29005KT CAVOK 13/03 Q1031
TAF TAF LPPR 311100Z 3112/0112 10007KT CAVOK BECMG 3113/3115 33007KT BECMG 3121/3124 08007KT
Weather As Of 31 Jan 2023 13:55
Description Clear sky
Wind 9 km/h from West (290°)
Cloud Cover 0%
Precipitation Rain: none, Snow: none
Sunrise 07:47
Sunset 17:48
Lounges ANA Lounge, International
Rotations During the last 90 days there were
49 flights from LHR
49 flights to LHR



Support Speedbird Online

© 2017-2023 Speedbird Online